sensor_id;sensor_type;location;lat;lon;timestamp;P1;durP1;ratioP1;P2;durP2;ratioP2
11616;SDS011;5864;52.998;9.068;2023-03-24T00:00:12;6.80;;;3.00;;
11616;SDS011;5864;52.998;9.068;2023-03-24T00:03:00;9.10;;;3.67;;
11616;SDS011;5864;52.998;9.068;2023-03-24T00:05:52;5.50;;;3.00;;
11616;SDS011;5864;52.998;9.068;2023-03-24T00:08:40;5.07;;;3.13;;
11616;SDS011;5864;52.998;9.068;2023-03-24T00:11:27;6.97;;;2.97;;
11616;SDS011;5864;52.998;9.068;2023-03-24T00:14:17;5.17;;;3.00;;
11616;SDS011;5864;52.998;9.068;2023-03-24T00:17:03;5.13;;;2.80;;
11616;SDS011;5864;52.998;9.068;2023-03-24T00:19:49;5.40;;;3.07;;
11616;SDS011;5864;52.998;9.068;2023-03-24T00:22:34;7.47;;;3.00;;
11616;SDS011;5864;52.998;9.068;2023-03-24T00:25:21;7.00;;;3.10;;
11616;SDS011;5864;52.998;9.068;2023-03-24T00:28:12;6.30;;;3.30;;
11616;SDS011;5864;52.998;9.068;2023-03-24T00:30:58;4.10;;;2.80;;
11616;SDS011;5864;52.998;9.068;2023-03-24T00:33:46;7.97;;;3.60;;
11616;SDS011;5864;52.998;9.068;2023-03-24T00:36:33;6.67;;;3.47;;
11616;SDS011;5864;52.998;9.068;2023-03-24T00:39:19;8.67;;;3.77;;
11616;SDS011;5864;52.998;9.068;2023-03-24T00:42:05;6.03;;;3.30;;
11616;SDS011;5864;52.998;9.068;2023-03-24T00:44:52;6.57;;;3.40;;
11616;SDS011;5864;52.998;9.068;2023-03-24T00:47:38;8.13;;;3.23;;
11616;SDS011;5864;52.998;9.068;2023-03-24T00:50:23;4.00;;;2.73;;
11616;SDS011;5864;52.998;9.068;2023-03-24T00:53:09;6.80;;;3.10;;
11616;SDS011;5864;52.998;9.068;2023-03-24T00:55:55;5.20;;;3.13;;
11616;SDS011;5864;52.998;9.068;2023-03-24T00:58:41;4.53;;;2.97;;
11616;SDS011;5864;52.998;9.068;2023-03-24T01:01:29;8.00;;;2.90;;
11616;SDS011;5864;52.998;9.068;2023-03-24T01:04:19;5.97;;;3.20;;
11616;SDS011;5864;52.998;9.068;2023-03-24T01:07:07;5.70;;;3.23;;
11616;SDS011;5864;52.998;9.068;2023-03-24T01:09:54;5.97;;;3.00;;
11616;SDS011;5864;52.998;9.068;2023-03-24T01:12:40;5.17;;;3.20;;
11616;SDS011;5864;52.998;9.068;2023-03-24T01:15:27;5.33;;;3.30;;
11616;SDS011;5864;52.998;9.068;2023-03-24T01:18:15;7.00;;;3.23;;
11616;SDS011;5864;52.998;9.068;2023-03-24T01:21:01;5.83;;;2.77;;
11616;SDS011;5864;52.998;9.068;2023-03-24T01:23:47;8.00;;;3.43;;
11616;SDS011;5864;52.998;9.068;2023-03-24T01:26:35;7.60;;;3.30;;
11616;SDS011;5864;52.998;9.068;2023-03-24T01:29:22;5.17;;;3.50;;
11616;SDS011;5864;52.998;9.068;2023-03-24T01:32:08;5.57;;;2.83;;
11616;SDS011;5864;52.998;9.068;2023-03-24T01:34:55;7.10;;;3.57;;
11616;SDS011;5864;52.998;9.068;2023-03-24T01:37:40;5.47;;;3.00;;
11616;SDS011;5864;52.998;9.068;2023-03-24T01:40:26;5.77;;;3.50;;
11616;SDS011;5864;52.998;9.068;2023-03-24T01:43:16;9.57;;;3.50;;
11616;SDS011;5864;52.998;9.068;2023-03-24T01:46:11;4.43;;;3.43;;
11616;SDS011;5864;52.998;9.068;2023-03-24T01:48:59;7.13;;;3.57;;
11616;SDS011;5864;52.998;9.068;2023-03-24T01:51:49;7.57;;;3.27;;
11616;SDS011;5864;52.998;9.068;2023-03-24T01:54:39;4.17;;;2.90;;
11616;SDS011;5864;52.998;9.068;2023-03-24T01:57:28;6.57;;;3.20;;
11616;SDS011;5864;52.998;9.068;2023-03-24T02:00:17;5.07;;;2.97;;
11616;SDS011;5864;52.998;9.068;2023-03-24T02:03:06;4.73;;;2.97;;
11616;SDS011;5864;52.998;9.068;2023-03-24T02:05:53;5.03;;;3.10;;
11616;SDS011;5864;52.998;9.068;2023-03-24T02:08:43;6.67;;;3.97;;
11616;SDS011;5864;52.998;9.068;2023-03-24T02:11:38;6.87;;;3.47;;
11616;SDS011;5864;52.998;9.068;2023-03-24T02:14:24;4.10;;;2.83;;
11616;SDS011;5864;52.998;9.068;2023-03-24T02:17:21;5.47;;;3.07;;
11616;SDS011;5864;52.998;9.068;2023-03-24T02:20:29;7.20;;;2.93;;
11616;SDS011;5864;52.998;9.068;2023-03-24T02:26:56;5.00;;;3.10;;
11616;SDS011;5864;52.998;9.068;2023-03-24T02:30:01;4.67;;;3.37;;
11616;SDS011;5864;52.998;9.068;2023-03-24T02:36:33;4.87;;;2.93;;
11616;SDS011;5864;52.998;9.068;2023-03-24T02:39:54;5.23;;;2.80;;
11616;SDS011;5864;52.998;9.068;2023-03-24T02:42:50;7.27;;;2.97;;
11616;SDS011;5864;52.998;9.068;2023-03-24T02:45:49;4.67;;;2.57;;
11616;SDS011;5864;52.998;9.068;2023-03-24T02:48:44;6.57;;;3.00;;
11616;SDS011;5864;52.998;9.068;2023-03-24T02:51:42;4.57;;;2.83;;
11616;SDS011;5864;52.998;9.068;2023-03-24T02:54:35;4.80;;;3.10;;
11616;SDS011;5864;52.998;9.068;2023-03-24T02:57:29;5.87;;;3.70;;
11616;SDS011;5864;52.998;9.068;2023-03-24T03:00:20;6.57;;;3.50;;
11616;SDS011;5864;52.998;9.068;2023-03-24T03:03:14;4.17;;;2.90;;
11616;SDS011;5864;52.998;9.068;2023-03-24T03:06:06;4.80;;;3.17;;
11616;SDS011;5864;52.998;9.068;2023-03-24T03:08:58;3.53;;;2.77;;
11616;SDS011;5864;52.998;9.068;2023-03-24T03:11:48;5.40;;;3.03;;
11616;SDS011;5864;52.998;9.068;2023-03-24T03:14:40;6.43;;;3.47;;
11616;SDS011;5864;52.998;9.068;2023-03-24T03:17:30;4.90;;;2.90;;
11616;SDS011;5864;52.998;9.068;2023-03-24T03:20:22;4.67;;;3.13;;
11616;SDS011;5864;52.998;9.068;2023-03-24T03:23:13;7.83;;;3.40;;
11616;SDS011;5864;52.998;9.068;2023-03-24T03:26:03;4.30;;;2.90;;
11616;SDS011;5864;52.998;9.068;2023-03-24T03:28:56;6.57;;;3.20;;
11616;SDS011;5864;52.998;9.068;2023-03-24T03:31:47;6.47;;;3.60;;
11616;SDS011;5864;52.998;9.068;2023-03-24T03:34:36;4.37;;;3.17;;
11616;SDS011;5864;52.998;9.068;2023-03-24T03:37:27;7.53;;;3.20;;
11616;SDS011;5864;52.998;9.068;2023-03-24T03:40:18;6.40;;;3.17;;
11616;SDS011;5864;52.998;9.068;2023-03-24T03:43:08;4.57;;;3.20;;
11616;SDS011;5864;52.998;9.068;2023-03-24T03:45:54;3.20;;;2.90;;
11616;SDS011;5864;52.998;9.068;2023-03-24T03:48:42;4.57;;;3.00;;
11616;SDS011;5864;52.998;9.068;2023-03-24T03:51:28;4.87;;;3.27;;
11616;SDS011;5864;52.998;9.068;2023-03-24T03:54:15;5.73;;;2.77;;
11616;SDS011;5864;52.998;9.068;2023-03-24T03:57:01;5.07;;;3.03;;
11616;SDS011;5864;52.998;9.068;2023-03-24T03:59:47;3.63;;;2.60;;
11616;SDS011;5864;52.998;9.068;2023-03-24T04:02:36;3.47;;;2.70;;
11616;SDS011;5864;52.998;9.068;2023-03-24T04:05:37;6.47;;;3.07;;
11616;SDS011;5864;52.998;9.068;2023-03-24T04:08:34;2.73;;;2.30;;
11616;SDS011;5864;52.998;9.068;2023-03-24T04:14:50;4.70;;;2.50;;
11616;SDS011;5864;52.998;9.068;2023-03-24T04:17:55;4.33;;;2.70;;
11616;SDS011;5864;52.998;9.068;2023-03-24T04:21:25;3.90;;;2.60;;
11616;SDS011;5864;52.998;9.068;2023-03-24T04:24:29;3.47;;;2.67;;
11616;SDS011;5864;52.998;9.068;2023-03-24T04:27:24;3.80;;;2.70;;
11616;SDS011;5864;52.998;9.068;2023-03-24T04:30:22;3.50;;;2.50;;
11616;SDS011;5864;52.998;9.068;2023-03-24T04:33:14;3.00;;;2.70;;
11616;SDS011;5864;52.998;9.068;2023-03-24T04:36:05;5.13;;;3.00;;
11616;SDS011;5864;52.998;9.068;2023-03-24T04:39:03;4.07;;;2.80;;
11616;SDS011;5864;52.998;9.068;2023-03-24T04:41:49;3.27;;;2.57;;
11616;SDS011;5864;52.998;9.068;2023-03-24T04:44:36;4.27;;;3.17;;
11616;SDS011;5864;52.998;9.068;2023-03-24T04:47:25;3.00;;;2.70;;
11616;SDS011;5864;52.998;9.068;2023-03-24T04:50:15;3.17;;;2.87;;
11616;SDS011;5864;52.998;9.068;2023-03-24T04:53:13;4.80;;;3.20;;
11616;SDS011;5864;52.998;9.068;2023-03-24T04:56:05;3.07;;;2.63;;
11616;SDS011;5864;52.998;9.068;2023-03-24T04:59:00;5.37;;;3.23;;
11616;SDS011;5864;52.998;9.068;2023-03-24T05:01:46;3.90;;;2.87;;
11616;SDS011;5864;52.998;9.068;2023-03-24T05:04:33;3.13;;;2.83;;
11616;SDS011;5864;52.998;9.068;2023-03-24T05:07:19;3.67;;;2.67;;
11616;SDS011;5864;52.998;9.068;2023-03-24T05:10:05;4.50;;;3.00;;
11616;SDS011;5864;52.998;9.068;2023-03-24T05:12:52;3.20;;;2.73;;
11616;SDS011;5864;52.998;9.068;2023-03-24T05:15:38;3.10;;;2.80;;
11616;SDS011;5864;52.998;9.068;2023-03-24T05:18:24;3.80;;;2.83;;
11616;SDS011;5864;52.998;9.068;2023-03-24T05:21:10;4.40;;;3.07;;
11616;SDS011;5864;52.998;9.068;2023-03-24T05:23:55;3.27;;;2.97;;
11616;SDS011;5864;52.998;9.068;2023-03-24T05:26:41;5.00;;;3.40;;
11616;SDS011;5864;52.998;9.068;2023-03-24T05:29:28;2.93;;;2.63;;
11616;SDS011;5864;52.998;9.068;2023-03-24T05:32:14;5.23;;;3.30;;
11616;SDS011;5864;52.998;9.068;2023-03-24T05:35:00;4.13;;;3.40;;
11616;SDS011;5864;52.998;9.068;2023-03-24T05:37:46;3.60;;;3.30;;
11616;SDS011;5864;52.998;9.068;2023-03-24T05:40:32;4.53;;;3.20;;
11616;SDS011;5864;52.998;9.068;2023-03-24T05:43:17;4.37;;;3.30;;
11616;SDS011;5864;52.998;9.068;2023-03-24T05:46:05;3.80;;;3.33;;
11616;SDS011;5864;52.998;9.068;2023-03-24T05:48:51;3.93;;;3.53;;
11616;SDS011;5864;52.998;9.068;2023-03-24T05:51:37;3.33;;;2.97;;
11616;SDS011;5864;52.998;9.068;2023-03-24T05:54:22;5.73;;;3.77;;
11616;SDS011;5864;52.998;9.068;2023-03-24T05:57:10;4.33;;;3.23;;
11616;SDS011;5864;52.998;9.068;2023-03-24T05:59:57;4.93;;;3.53;;
11616;SDS011;5864;52.998;9.068;2023-03-24T06:02:44;5.57;;;4.10;;
11616;SDS011;5864;52.998;9.068;2023-03-24T06:05:31;4.53;;;3.63;;
11616;SDS011;5864;52.998;9.068;2023-03-24T06:08:16;5.13;;;3.63;;
11616;SDS011;5864;52.998;9.068;2023-03-24T06:11:02;3.83;;;3.40;;
11616;SDS011;5864;52.998;9.068;2023-03-24T06:13:48;4.63;;;3.33;;
11616;SDS011;5864;52.998;9.068;2023-03-24T06:16:34;3.90;;;3.50;;
11616;SDS011;5864;52.998;9.068;2023-03-24T06:19:23;4.27;;;3.50;;
11616;SDS011;5864;52.998;9.068;2023-03-24T06:22:10;4.23;;;3.70;;
11616;SDS011;5864;52.998;9.068;2023-03-24T06:24:56;5.57;;;3.53;;
11616;SDS011;5864;52.998;9.068;2023-03-24T06:27:42;5.30;;;2.97;;
11616;SDS011;5864;52.998;9.068;2023-03-24T06:30:30;4.30;;;2.93;;
11616;SDS011;5864;52.998;9.068;2023-03-24T06:33:15;3.30;;;2.90;;
11616;SDS011;5864;52.998;9.068;2023-03-24T06:36:03;2.57;;;2.30;;
11616;SDS011;5864;52.998;9.068;2023-03-24T06:38:49;3.30;;;2.20;;
11616;SDS011;5864;52.998;9.068;2023-03-24T06:41:35;2.43;;;2.03;;
11616;SDS011;5864;52.998;9.068;2023-03-24T06:44:20;5.57;;;2.27;;
11616;SDS011;5864;52.998;9.068;2023-03-24T06:47:06;5.40;;;1.80;;
11616;SDS011;5864;52.998;9.068;2023-03-24T06:49:51;2.87;;;1.93;;
11616;SDS011;5864;52.998;9.068;2023-03-24T06:52:38;3.50;;;1.70;;
11616;SDS011;5864;52.998;9.068;2023-03-24T06:55:24;3.77;;;2.00;;
11616;SDS011;5864;52.998;9.068;2023-03-24T06:58:10;3.30;;;1.60;;
11616;SDS011;5864;52.998;9.068;2023-03-24T07:00:58;4.07;;;1.67;;
11616;SDS011;5864;52.998;9.068;2023-03-24T07:03:44;3.10;;;1.40;;
11616;SDS011;5864;52.998;9.068;2023-03-24T07:06:30;6.00;;;1.60;;
11616;SDS011;5864;52.998;9.068;2023-03-24T07:09:18;3.53;;;1.40;;
11616;SDS011;5864;52.998;9.068;2023-03-24T07:12:04;2.43;;;1.30;;
11616;SDS011;5864;52.998;9.068;2023-03-24T07:14:50;3.73;;;1.73;;
11616;SDS011;5864;52.998;9.068;2023-03-24T07:17:35;4.90;;;1.40;;
11616;SDS011;5864;52.998;9.068;2023-03-24T07:20:21;3.13;;;1.50;;
11616;SDS011;5864;52.998;9.068;2023-03-24T07:23:06;4.07;;;1.70;;
11616;SDS011;5864;52.998;9.068;2023-03-24T07:25:53;5.00;;;1.90;;
11616;SDS011;5864;52.998;9.068;2023-03-24T07:28:39;3.23;;;1.50;;
11616;SDS011;5864;52.998;9.068;2023-03-24T07:31:24;2.00;;;1.53;;
11616;SDS011;5864;52.998;9.068;2023-03-24T07:34:10;4.97;;;1.90;;
11616;SDS011;5864;52.998;9.068;2023-03-24T07:36:56;5.40;;;1.70;;
11616;SDS011;5864;52.998;9.068;2023-03-24T07:39:42;4.30;;;1.50;;
11616;SDS011;5864;52.998;9.068;2023-03-24T07:42:29;3.50;;;1.83;;
11616;SDS011;5864;52.998;9.068;2023-03-24T07:45:15;3.47;;;1.73;;
11616;SDS011;5864;52.998;9.068;2023-03-24T07:48:01;5.57;;;1.87;;
11616;SDS011;5864;52.998;9.068;2023-03-24T07:50:46;4.83;;;1.73;;
11616;SDS011;5864;52.998;9.068;2023-03-24T07:53:31;4.23;;;1.97;;
11616;SDS011;5864;52.998;9.068;2023-03-24T07:56:17;6.20;;;1.80;;
11616;SDS011;5864;52.998;9.068;2023-03-24T07:59:04;2.87;;;1.77;;
11616;SDS011;5864;52.998;9.068;2023-03-24T08:01:50;4.83;;;1.77;;
11616;SDS011;5864;52.998;9.068;2023-03-24T08:04:36;6.07;;;1.97;;
11616;SDS011;5864;52.998;9.068;2023-03-24T08:07:21;5.37;;;1.73;;
11616;SDS011;5864;52.998;9.068;2023-03-24T08:10:07;3.83;;;2.10;;
11616;SDS011;5864;52.998;9.068;2023-03-24T08:12:54;6.33;;;2.10;;
11616;SDS011;5864;52.998;9.068;2023-03-24T08:15:42;6.87;;;2.20;;
11616;SDS011;5864;52.998;9.068;2023-03-24T08:18:27;3.60;;;1.90;;
11616;SDS011;5864;52.998;9.068;2023-03-24T08:21:14;4.23;;;1.73;;
11616;SDS011;5864;52.998;9.068;2023-03-24T08:24:00;4.53;;;1.80;;
11616;SDS011;5864;52.998;9.068;2023-03-24T08:26:46;5.57;;;1.90;;
11616;SDS011;5864;52.998;9.068;2023-03-24T08:29:32;5.70;;;1.77;;
11616;SDS011;5864;52.998;9.068;2023-03-24T08:32:19;6.70;;;2.17;;
11616;SDS011;5864;52.998;9.068;2023-03-24T08:35:05;4.33;;;2.00;;
11616;SDS011;5864;52.998;9.068;2023-03-24T08:37:51;6.00;;;1.90;;
11616;SDS011;5864;52.998;9.068;2023-03-24T08:40:38;4.97;;;2.03;;
11616;SDS011;5864;52.998;9.068;2023-03-24T08:43:25;7.00;;;2.07;;
11616;SDS011;5864;52.998;9.068;2023-03-24T08:46:11;5.40;;;1.90;;
11616;SDS011;5864;52.998;9.068;2023-03-24T08:48:59;6.93;;;2.60;;
11616;SDS011;5864;52.998;9.068;2023-03-24T08:51:45;4.80;;;1.87;;
11616;SDS011;5864;52.998;9.068;2023-03-24T08:54:30;8.20;;;2.10;;
11616;SDS011;5864;52.998;9.068;2023-03-24T08:57:16;5.83;;;2.33;;
11616;SDS011;5864;52.998;9.068;2023-03-24T09:00:02;6.83;;;2.00;;
11616;SDS011;5864;52.998;9.068;2023-03-24T09:02:54;5.87;;;2.03;;
11616;SDS011;5864;52.998;9.068;2023-03-24T09:05:42;6.00;;;2.23;;
11616;SDS011;5864;52.998;9.068;2023-03-24T09:08:28;5.53;;;2.00;;
11616;SDS011;5864;52.998;9.068;2023-03-24T09:11:15;6.57;;;1.87;;
11616;SDS011;5864;52.998;9.068;2023-03-24T09:14:02;6.47;;;2.17;;
11616;SDS011;5864;52.998;9.068;2023-03-24T09:16:48;5.93;;;2.00;;
11616;SDS011;5864;52.998;9.068;2023-03-24T09:19:34;5.50;;;2.40;;
11616;SDS011;5864;52.998;9.068;2023-03-24T09:22:21;5.80;;;2.00;;
11616;SDS011;5864;52.998;9.068;2023-03-24T09:25:07;6.63;;;2.10;;
11616;SDS011;5864;52.998;9.068;2023-03-24T09:27:54;5.47;;;2.50;;
11616;SDS011;5864;52.998;9.068;2023-03-24T09:30:40;5.23;;;2.00;;
11616;SDS011;5864;52.998;9.068;2023-03-24T09:33:26;5.23;;;2.30;;
11616;SDS011;5864;52.998;9.068;2023-03-24T09:36:12;7.63;;;2.57;;
11616;SDS011;5864;52.998;9.068;2023-03-24T09:38:59;7.33;;;2.27;;
11616;SDS011;5864;52.998;9.068;2023-03-24T09:41:45;4.83;;;2.33;;
11616;SDS011;5864;52.998;9.068;2023-03-24T09:44:33;5.87;;;2.10;;
11616;SDS011;5864;52.998;9.068;2023-03-24T09:47:25;7.60;;;2.37;;
11616;SDS011;5864;52.998;9.068;2023-03-24T09:50:16;9.37;;;2.27;;
11616;SDS011;5864;52.998;9.068;2023-03-24T09:53:06;5.97;;;2.57;;
11616;SDS011;5864;52.998;9.068;2023-03-24T09:55:57;6.03;;;2.40;;
11616;SDS011;5864;52.998;9.068;2023-03-24T09:58:48;6.43;;;2.17;;
11616;SDS011;5864;52.998;9.068;2023-03-24T10:01:43;5.73;;;2.53;;
11616;SDS011;5864;52.998;9.068;2023-03-24T10:04:28;9.03;;;2.50;;
11616;SDS011;5864;52.998;9.068;2023-03-24T10:07:17;7.53;;;2.33;;
11616;SDS011;5864;52.998;9.068;2023-03-24T10:10:08;8.57;;;2.20;;
11616;SDS011;5864;52.998;9.068;2023-03-24T10:13:06;8.33;;;2.43;;
11616;SDS011;5864;52.998;9.068;2023-03-24T10:15:58;7.90;;;2.67;;
11616;SDS011;5864;52.998;9.068;2023-03-24T10:18:50;7.13;;;2.47;;
11616;SDS011;5864;52.998;9.068;2023-03-24T10:21:41;7.83;;;2.80;;
11616;SDS011;5864;52.998;9.068;2023-03-24T10:24:34;10.70;;;2.70;;
11616;SDS011;5864;52.998;9.068;2023-03-24T10:27:26;6.17;;;2.00;;
11616;SDS011;5864;52.998;9.068;2023-03-24T10:30:18;7.13;;;2.63;;
11616;SDS011;5864;52.998;9.068;2023-03-24T10:33:07;6.57;;;2.50;;
11616;SDS011;5864;52.998;9.068;2023-03-24T10:35:55;11.63;;;2.80;;
11616;SDS011;5864;52.998;9.068;2023-03-24T10:38:46;9.57;;;2.83;;
11616;SDS011;5864;52.998;9.068;2023-03-24T10:41:32;8.67;;;2.60;;
11616;SDS011;5864;52.998;9.068;2023-03-24T10:44:20;8.63;;;2.80;;
11616;SDS011;5864;52.998;9.068;2023-03-24T10:47:09;7.40;;;2.73;;
11616;SDS011;5864;52.998;9.068;2023-03-24T10:50:00;7.40;;;2.33;;
11616;SDS011;5864;52.998;9.068;2023-03-24T10:52:49;7.17;;;2.20;;
11616;SDS011;5864;52.998;9.068;2023-03-24T10:55:36;7.63;;;2.50;;
11616;SDS011;5864;52.998;9.068;2023-03-24T10:58:27;6.83;;;2.83;;
11616;SDS011;5864;52.998;9.068;2023-03-24T11:01:20;11.20;;;2.83;;
11616;SDS011;5864;52.998;9.068;2023-03-24T11:04:15;6.93;;;2.77;;
11616;SDS011;5864;52.998;9.068;2023-03-24T11:07:03;9.27;;;2.83;;
11616;SDS011;5864;52.998;9.068;2023-03-24T11:09:59;9.93;;;2.80;;
11616;SDS011;5864;52.998;9.068;2023-03-24T11:12:58;8.33;;;2.60;;
11616;SDS011;5864;52.998;9.068;2023-03-24T11:15:53;9.90;;;2.77;;
11616;SDS011;5864;52.998;9.068;2023-03-24T11:18:53;10.57;;;2.80;;
11616;SDS011;5864;52.998;9.068;2023-03-24T11:21:41;8.37;;;2.80;;
11616;SDS011;5864;52.998;9.068;2023-03-24T11:24:27;7.73;;;2.50;;
11616;SDS011;5864;52.998;9.068;2023-03-24T11:27:14;8.27;;;2.93;;
11616;SDS011;5864;52.998;9.068;2023-03-24T11:30:01;9.70;;;2.60;;
11616;SDS011;5864;52.998;9.068;2023-03-24T11:32:46;6.10;;;2.53;;
11616;SDS011;5864;52.998;9.068;2023-03-24T11:35:32;8.47;;;2.57;;
11616;SDS011;5864;52.998;9.068;2023-03-24T11:38:26;8.27;;;2.47;;
11616;SDS011;5864;52.998;9.068;2023-03-24T11:41:13;7.67;;;2.90;;
11616;SDS011;5864;52.998;9.068;2023-03-24T11:47:17;7.60;;;2.70;;
11616;SDS011;5864;52.998;9.068;2023-03-24T11:50:12;6.60;;;2.10;;
11616;SDS011;5864;52.998;9.068;2023-03-24T11:53:02;6.23;;;2.63;;
11616;SDS011;5864;52.998;9.068;2023-03-24T11:55:55;4.73;;;2.47;;
11616;SDS011;5864;52.998;9.068;2023-03-24T11:58:46;9.40;;;2.67;;
11616;SDS011;5864;52.998;9.068;2023-03-24T12:01:37;7.87;;;2.20;;
11616;SDS011;5864;52.998;9.068;2023-03-24T12:04:28;5.40;;;2.33;;
11616;SDS011;5864;52.998;9.068;2023-03-24T12:07:41;11.67;;;2.60;;
11616;SDS011;5864;52.998;9.068;2023-03-24T12:10:42;5.97;;;2.47;;
11616;SDS011;5864;52.998;9.068;2023-03-24T12:13:37;10.40;;;2.73;;
11616;SDS011;5864;52.998;9.068;2023-03-24T12:16:32;9.33;;;2.80;;
11616;SDS011;5864;52.998;9.068;2023-03-24T12:19:36;6.50;;;2.50;;
11616;SDS011;5864;52.998;9.068;2023-03-24T12:22:38;5.60;;;2.23;;
11616;SDS011;5864;52.998;9.068;2023-03-24T12:25:36;6.63;;;2.10;;
11616;SDS011;5864;52.998;9.068;2023-03-24T12:28:38;7.67;;;2.63;;
11616;SDS011;5864;52.998;9.068;2023-03-24T12:31:59;7.00;;;2.50;;
11616;SDS011;5864;52.998;9.068;2023-03-24T12:38:16;7.53;;;2.30;;
11616;SDS011;5864;52.998;9.068;2023-03-24T12:41:13;6.13;;;2.60;;
11616;SDS011;5864;52.998;9.068;2023-03-24T12:44:30;5.33;;;2.17;;
11616;SDS011;5864;52.998;9.068;2023-03-24T12:47:32;6.73;;;2.50;;
11616;SDS011;5864;52.998;9.068;2023-03-24T12:50:31;9.97;;;2.60;;
11616;SDS011;5864;52.998;9.068;2023-03-24T12:53:27;7.13;;;2.60;;
11616;SDS011;5864;52.998;9.068;2023-03-24T12:56:30;6.30;;;2.57;;
11616;SDS011;5864;52.998;9.068;2023-03-24T12:59:23;7.60;;;2.90;;
11616;SDS011;5864;52.998;9.068;2023-03-24T13:02:18;6.43;;;2.50;;
11616;SDS011;5864;52.998;9.068;2023-03-24T13:05:13;8.80;;;2.40;;
11616;SDS011;5864;52.998;9.068;2023-03-24T13:08:02;6.77;;;2.30;;
11616;SDS011;5864;52.998;9.068;2023-03-24T13:10:54;8.20;;;2.50;;
11616;SDS011;5864;52.998;9.068;2023-03-24T13:13:45;6.10;;;2.27;;
11616;SDS011;5864;52.998;9.068;2023-03-24T13:16:33;6.60;;;2.63;;
11616;SDS011;5864;52.998;9.068;2023-03-24T13:19:23;6.97;;;2.50;;
11616;SDS011;5864;52.998;9.068;2023-03-24T13:22:11;7.10;;;2.20;;
11616;SDS011;5864;52.998;9.068;2023-03-24T13:25:01;4.93;;;2.17;;
11616;SDS011;5864;52.998;9.068;2023-03-24T13:27:52;6.33;;;2.47;;
11616;SDS011;5864;52.998;9.068;2023-03-24T13:30:43;6.40;;;2.23;;
11616;SDS011;5864;52.998;9.068;2023-03-24T13:33:29;4.50;;;1.87;;
11616;SDS011;5864;52.998;9.068;2023-03-24T13:36:26;3.50;;;1.83;;
11616;SDS011;5864;52.998;9.068;2023-03-24T13:39:20;7.27;;;2.47;;
11616;SDS011;5864;52.998;9.068;2023-03-24T13:42:19;7.43;;;2.23;;
11616;SDS011;5864;52.998;9.068;2023-03-24T13:45:20;6.97;;;2.27;;
11616;SDS011;5864;52.998;9.068;2023-03-24T13:48:15;3.43;;;2.17;;
11616;SDS011;5864;52.998;9.068;2023-03-24T13:51:10;5.43;;;2.23;;
11616;SDS011;5864;52.998;9.068;2023-03-24T13:54:04;6.90;;;2.13;;
11616;SDS011;5864;52.998;9.068;2023-03-24T13:56:59;6.03;;;2.07;;
11616;SDS011;5864;52.998;9.068;2023-03-24T13:59:58;6.43;;;2.27;;
11616;SDS011;5864;52.998;9.068;2023-03-24T14:02:54;7.53;;;2.70;;
11616;SDS011;5864;52.998;9.068;2023-03-24T14:05:56;8.60;;;2.30;;
11616;SDS011;5864;52.998;9.068;2023-03-24T14:08:53;5.20;;;2.00;;
11616;SDS011;5864;52.998;9.068;2023-03-24T14:11:49;8.00;;;2.10;;
11616;SDS011;5864;52.998;9.068;2023-03-24T14:15:06;6.10;;;2.13;;
11616;SDS011;5864;52.998;9.068;2023-03-24T14:18:13;5.77;;;2.00;;
11616;SDS011;5864;52.998;9.068;2023-03-24T14:21:22;6.40;;;1.73;;
11616;SDS011;5864;52.998;9.068;2023-03-24T14:24:16;4.83;;;1.80;;
11616;SDS011;5864;52.998;9.068;2023-03-24T14:30:19;5.13;;;1.87;;
11616;SDS011;5864;52.998;9.068;2023-03-24T14:33:19;4.53;;;1.90;;
11616;SDS011;5864;52.998;9.068;2023-03-24T14:36:08;4.27;;;1.80;;
11616;SDS011;5864;52.998;9.068;2023-03-24T14:38:55;4.67;;;1.80;;
11616;SDS011;5864;52.998;9.068;2023-03-24T14:41:43;4.50;;;2.17;;
11616;SDS011;5864;52.998;9.068;2023-03-24T14:44:54;6.90;;;2.20;;
11616;SDS011;5864;52.998;9.068;2023-03-24T14:47:41;5.57;;;2.10;;
11616;SDS011;5864;52.998;9.068;2023-03-24T14:50:27;9.00;;;1.93;;
11616;SDS011;5864;52.998;9.068;2023-03-24T14:53:16;5.07;;;2.07;;
11616;SDS011;5864;52.998;9.068;2023-03-24T14:56:04;7.43;;;2.10;;
11616;SDS011;5864;52.998;9.068;2023-03-24T14:58:53;5.13;;;2.10;;
11616;SDS011;5864;52.998;9.068;2023-03-24T15:01:41;7.20;;;2.17;;
11616;SDS011;5864;52.998;9.068;2023-03-24T15:04:30;5.80;;;2.10;;
11616;SDS011;5864;52.998;9.068;2023-03-24T15:07:21;10.20;;;2.40;;
11616;SDS011;5864;52.998;9.068;2023-03-24T15:10:12;5.67;;;2.10;;
11616;SDS011;5864;52.998;9.068;2023-03-24T15:12:58;5.90;;;1.97;;
11616;SDS011;5864;52.998;9.068;2023-03-24T15:15:45;5.67;;;1.90;;
11616;SDS011;5864;52.998;9.068;2023-03-24T15:18:33;3.90;;;1.97;;
11616;SDS011;5864;52.998;9.068;2023-03-24T15:21:21;8.27;;;2.20;;
11616;SDS011;5864;52.998;9.068;2023-03-24T15:24:25;5.93;;;2.03;;
11616;SDS011;5864;52.998;9.068;2023-03-24T15:27:16;7.77;;;1.90;;
11616;SDS011;5864;52.998;9.068;2023-03-24T15:30:11;4.60;;;2.10;;
11616;SDS011;5864;52.998;9.068;2023-03-24T15:32:58;4.83;;;2.30;;
11616;SDS011;5864;52.998;9.068;2023-03-24T15:35:46;3.83;;;2.13;;
11616;SDS011;5864;52.998;9.068;2023-03-24T15:38:43;4.80;;;2.20;;
11616;SDS011;5864;52.998;9.068;2023-03-24T15:41:30;6.17;;;1.80;;
11616;SDS011;5864;52.998;9.068;2023-03-24T15:44:17;5.47;;;1.83;;
11616;SDS011;5864;52.998;9.068;2023-03-24T15:47:05;4.63;;;1.90;;
11616;SDS011;5864;52.998;9.068;2023-03-24T15:49:59;3.63;;;1.77;;
11616;SDS011;5864;52.998;9.068;2023-03-24T15:52:47;4.03;;;1.73;;
11616;SDS011;5864;52.998;9.068;2023-03-24T15:55:43;3.43;;;1.50;;
11616;SDS011;5864;52.998;9.068;2023-03-24T15:58:29;3.67;;;1.37;;
11616;SDS011;5864;52.998;9.068;2023-03-24T16:01:16;4.30;;;1.50;;
11616;SDS011;5864;52.998;9.068;2023-03-24T16:04:05;4.67;;;1.20;;
11616;SDS011;5864;52.998;9.068;2023-03-24T16:06:55;3.50;;;1.50;;
11616;SDS011;5864;52.998;9.068;2023-03-24T16:09:42;2.90;;;1.20;;
11616;SDS011;5864;52.998;9.068;2023-03-24T16:12:30;4.30;;;1.40;;
11616;SDS011;5864;52.998;9.068;2023-03-24T16:15:16;3.53;;;1.50;;
11616;SDS011;5864;52.998;9.068;2023-03-24T16:18:02;3.07;;;1.27;;
11616;SDS011;5864;52.998;9.068;2023-03-24T16:20:48;3.03;;;1.33;;
11616;SDS011;5864;52.998;9.068;2023-03-24T16:23:34;4.13;;;1.50;;
11616;SDS011;5864;52.998;9.068;2023-03-24T16:26:21;4.03;;;1.63;;
11616;SDS011;5864;52.998;9.068;2023-03-24T16:29:12;5.77;;;1.80;;
11616;SDS011;5864;52.998;9.068;2023-03-24T16:32:00;3.93;;;1.70;;
11616;SDS011;5864;52.998;9.068;2023-03-24T16:34:46;4.03;;;1.60;;
11616;SDS011;5864;52.998;9.068;2023-03-24T16:37:31;4.37;;;1.70;;
11616;SDS011;5864;52.998;9.068;2023-03-24T16:40:19;4.60;;;1.80;;
11616;SDS011;5864;52.998;9.068;2023-03-24T16:43:10;2.43;;;1.60;;
11616;SDS011;5864;52.998;9.068;2023-03-24T16:45:56;3.77;;;1.90;;
11616;SDS011;5864;52.998;9.068;2023-03-24T16:48:42;4.07;;;1.90;;
11616;SDS011;5864;52.998;9.068;2023-03-24T16:51:27;3.40;;;1.20;;
11616;SDS011;5864;52.998;9.068;2023-03-24T16:54:13;1.70;;;1.10;;
11616;SDS011;5864;52.998;9.068;2023-03-24T16:56:59;1.57;;;1.40;;
11616;SDS011;5864;52.998;9.068;2023-03-24T16:59:47;2.20;;;1.57;;
11616;SDS011;5864;52.998;9.068;2023-03-24T17:02:32;4.97;;;1.40;;
11616;SDS011;5864;52.998;9.068;2023-03-24T17:05:21;3.13;;;1.37;;
11616;SDS011;5864;52.998;9.068;2023-03-24T17:08:10;2.27;;;1.10;;
11616;SDS011;5864;52.998;9.068;2023-03-24T17:10:55;2.63;;;1.33;;
11616;SDS011;5864;52.998;9.068;2023-03-24T17:13:41;1.40;;;1.20;;
11616;SDS011;5864;52.998;9.068;2023-03-24T17:16:28;2.67;;;1.40;;
11616;SDS011;5864;52.998;9.068;2023-03-24T17:19:14;2.57;;;1.23;;
11616;SDS011;5864;52.998;9.068;2023-03-24T17:22:02;1.73;;;1.10;;
11616;SDS011;5864;52.998;9.068;2023-03-24T17:24:49;3.13;;;1.30;;
11616;SDS011;5864;52.998;9.068;2023-03-24T17:27:40;3.23;;;1.40;;
11616;SDS011;5864;52.998;9.068;2023-03-24T17:30:27;1.73;;;1.10;;
11616;SDS011;5864;52.998;9.068;2023-03-24T17:33:15;2.00;;;1.27;;
11616;SDS011;5864;52.998;9.068;2023-03-24T17:36:01;2.13;;;1.40;;
11616;SDS011;5864;52.998;9.068;2023-03-24T17:38:46;3.30;;;1.33;;